createdAt,value
2023-03-29T00:02:51.950Z,0.70
2023-03-29T00:05:20.717Z,0.54
2023-03-29T00:07:50.094Z,0.42
2023-03-29T00:10:29.786Z,0.45
2023-03-29T00:13:01.271Z,0.45
2023-03-29T00:15:29.247Z,0.50
2023-03-29T00:17:57.598Z,0.50
2023-03-29T00:20:29.145Z,0.59
2023-03-29T00:23:02.969Z,0.59
2023-03-29T00:25:31.228Z,0.76
2023-03-29T00:27:59.597Z,0.54
2023-03-29T00:30:27.546Z,0.55
2023-03-29T00:32:56.094Z,0.55
2023-03-29T00:35:24.401Z,0.40
2023-03-29T00:38:06.232Z,0.47
2023-03-29T00:40:35.163Z,0.51
2023-03-29T00:43:05.804Z,0.56
2023-03-29T00:45:33.586Z,0.51
2023-03-29T00:48:03.390Z,0.56
2023-03-29T00:50:48.189Z,0.60
2023-03-29T00:53:29.757Z,0.51
2023-03-29T00:55:57.422Z,0.44
2023-03-29T00:58:30.681Z,0.35
2023-03-29T01:01:07.284Z,0.28
2023-03-29T01:03:40.870Z,0.09
2023-03-29T01:06:09.409Z,0.27
2023-03-29T01:08:41.820Z,0.30
2023-03-29T01:11:18.091Z,0.24
2023-03-29T01:13:51.239Z,0.32
2023-03-29T01:16:20.119Z,0.32
2023-03-29T01:18:48.570Z,0.26
2023-03-29T01:21:25.409Z,0.32
2023-03-29T01:24:03.203Z,0.09
2023-03-29T01:26:40.197Z,0.15
2023-03-29T01:29:22.291Z,0.07
2023-03-29T01:31:58.221Z,0.09
2023-03-29T01:34:33.432Z,-0.01
2023-03-29T01:37:04.101Z,0.21
2023-03-29T01:39:33.666Z,0.00
2023-03-29T01:42:17.301Z,-0.15
2023-03-29T01:44:59.043Z,-0.05
2023-03-29T01:47:36.446Z,-0.31
2023-03-29T01:50:32.536Z,-0.13
2023-03-29T01:53:06.264Z,-0.13
2023-03-29T01:55:37.287Z,-0.20
2023-03-29T01:58:06.641Z,-0.42
2023-03-29T02:00:35.460Z,-0.38
2023-03-29T02:03:08.190Z,-0.32
2023-03-29T02:05:37.279Z,-0.31
2023-03-29T02:08:07.867Z,-0.55
2023-03-29T02:10:36.002Z,-0.37
2023-03-29T02:13:05.129Z,-0.41
2023-03-29T02:15:33.921Z,-0.21
2023-03-29T02:18:04.789Z,-0.59
2023-03-29T02:20:35.888Z,-0.59
2023-03-29T02:23:09.559Z,-0.53
2023-03-29T02:25:37.365Z,-0.63
2023-03-29T02:28:06.424Z,-0.60
2023-03-29T02:30:57.335Z,-0.56
2023-03-29T02:33:41.342Z,-0.65
2023-03-29T02:36:21.907Z,-0.58
2023-03-29T02:38:52.743Z,-0.53
2023-03-29T02:41:22.466Z,-0.66
2023-03-29T02:43:50.748Z,-0.68
2023-03-29T02:46:19.125Z,-0.70
2023-03-29T02:48:48.664Z,-0.85
2023-03-29T02:51:22.735Z,-0.94
2023-03-29T02:54:12.731Z,-0.81
2023-03-29T02:56:56.442Z,-0.92
2023-03-29T02:59:24.297Z,-0.87
2023-03-29T03:01:52.736Z,-0.91
2023-03-29T03:04:20.930Z,-0.93
2023-03-29T03:06:49.243Z,-0.80
2023-03-29T03:09:17.465Z,-0.87
2023-03-29T03:11:45.625Z,-0.88
2023-03-29T03:14:13.396Z,-0.94
2023-03-29T03:16:41.488Z,-1.19
2023-03-29T03:19:09.499Z,-1.26
2023-03-29T03:21:37.110Z,-1.36
2023-03-29T03:24:05.758Z,-1.37
2023-03-29T03:26:33.838Z,-1.27
2023-03-29T03:29:01.632Z,-1.19
2023-03-29T03:31:31.861Z,-1.38
2023-03-29T03:34:01.989Z,-1.33
2023-03-29T03:36:30.343Z,-1.45
2023-03-29T03:38:58.155Z,-1.50
2023-03-29T03:41:26.316Z,-1.49
2023-03-29T03:43:54.754Z,-1.40
2023-03-29T03:46:23.210Z,-1.42
2023-03-29T03:48:51.005Z,-1.63
2023-03-29T03:51:19.477Z,-1.60
2023-03-29T03:53:47.135Z,-1.58
2023-03-29T03:56:17.207Z,-1.55
2023-03-29T03:58:45.670Z,-1.73
2023-03-29T04:01:13.865Z,-1.72
2023-03-29T04:03:42.696Z,-1.76
2023-03-29T04:06:13.127Z,-1.73
2023-03-29T04:08:41.664Z,-1.64
2023-03-29T04:11:10.177Z,-1.67
2023-03-29T04:13:37.967Z,-1.70
2023-03-29T04:16:07.446Z,-1.77
2023-03-29T04:18:35.557Z,-1.69
2023-03-29T04:21:03.754Z,-1.62
2023-03-29T04:23:33.950Z,-1.56
2023-03-29T04:26:02.029Z,-1.48
2023-03-29T04:28:31.678Z,-1.55
2023-03-29T04:31:00.703Z,-1.52
2023-03-29T04:33:29.611Z,-1.60
2023-03-29T04:35:59.359Z,-1.56
2023-03-29T04:38:27.138Z,-1.53
2023-03-29T04:40:55.924Z,-1.57
2023-03-29T04:43:24.001Z,-1.44
2023-03-29T04:45:53.318Z,-1.42
2023-03-29T04:48:24.159Z,-1.46
2023-03-29T04:50:51.901Z,-1.28
2023-03-29T04:53:21.177Z,-1.28
2023-03-29T04:55:50.008Z,-1.39
2023-03-29T04:58:20.746Z,-1.29
2023-03-29T05:00:50.238Z,-1.28
2023-03-29T05:03:19.442Z,-1.15
2023-03-29T05:05:48.003Z,-1.03
2023-03-29T05:08:16.095Z,-1.03
2023-03-29T05:10:45.431Z,-0.97
2023-03-29T05:13:13.632Z,-0.86
2023-03-29T05:15:42.510Z,-0.87
2023-03-29T05:18:10.318Z,-0.75
2023-03-29T05:20:38.008Z,-0.51
2023-03-29T05:23:06.196Z,-0.43
2023-03-29T05:25:36.881Z,-0.20
2023-03-29T05:28:04.801Z,-0.10
2023-03-29T05:30:33.260Z,0.09
2023-03-29T05:33:04.361Z,0.11
2023-03-29T05:35:33.040Z,0.26
2023-03-29T05:38:01.154Z,0.32
2023-03-29T05:40:28.858Z,0.45
2023-03-29T05:42:58.628Z,0.48
2023-03-29T05:45:26.374Z,0.49
2023-03-29T05:47:54.725Z,0.58
2023-03-29T05:50:22.945Z,0.67
2023-03-29T05:52:50.746Z,0.51
2023-03-29T05:55:18.750Z,0.65
2023-03-29T05:57:46.826Z,0.71
2023-03-29T06:00:15.444Z,0.91
2023-03-29T06:02:43.571Z,0.81
2023-03-29T06:05:12.018Z,0.99
2023-03-29T06:07:40.015Z,1.27
2023-03-29T06:10:10.149Z,1.22
2023-03-29T06:12:38.962Z,1.01
2023-03-29T06:15:06.962Z,1.06
2023-03-29T06:17:35.300Z,1.17
2023-03-29T06:20:03.276Z,1.29
2023-03-29T06:22:31.565Z,1.21
2023-03-29T06:24:59.552Z,1.15
2023-03-29T06:27:27.535Z,1.34
2023-03-29T06:29:55.452Z,1.67
2023-03-29T06:32:23.474Z,1.63
2023-03-29T06:34:51.649Z,1.75
2023-03-29T06:37:19.822Z,1.52
2023-03-29T06:39:50.818Z,1.88
2023-03-29T06:42:21.839Z,1.63
2023-03-29T06:44:50.410Z,1.31
2023-03-29T06:47:18.382Z,1.72
2023-03-29T06:49:46.087Z,1.87
2023-03-29T06:52:14.552Z,2.09
2023-03-29T06:54:43.040Z,2.22
2023-03-29T06:57:10.842Z,2.19
2023-03-29T06:59:39.214Z,2.10
2023-03-29T07:02:09.499Z,2.22
2023-03-29T07:04:38.954Z,2.06
2023-03-29T07:07:07.456Z,2.74
2023-03-29T07:09:35.539Z,2.74
2023-03-29T07:12:04.953Z,2.97
2023-03-29T07:14:33.249Z,2.84
2023-03-29T07:17:00.842Z,2.70
2023-03-29T07:19:29.110Z,3.15
2023-03-29T07:21:59.278Z,3.17
2023-03-29T07:24:29.189Z,2.85
2023-03-29T07:27:04.205Z,3.08
2023-03-29T07:29:33.803Z,3.26
2023-03-29T07:32:02.241Z,3.16
2023-03-29T07:34:31.986Z,3.10
2023-03-29T07:37:00.031Z,3.50
2023-03-29T07:39:28.063Z,3.55
2023-03-29T07:41:57.750Z,3.66
2023-03-29T07:44:25.858Z,3.73
2023-03-29T07:46:54.129Z,3.74
2023-03-29T07:49:22.280Z,3.77
2023-03-29T07:51:50.052Z,3.63
2023-03-29T07:54:17.985Z,3.78
2023-03-29T07:56:46.770Z,4.05
2023-03-29T07:59:15.644Z,4.10
2023-03-29T08:01:43.854Z,4.04
2023-03-29T08:04:12.107Z,4.18
2023-03-29T08:06:42.841Z,4.06
2023-03-29T08:09:10.502Z,4.25
2023-03-29T08:11:42.942Z,4.58
2023-03-29T08:19:34.236Z,5.04
2023-03-29T08:28:06.975Z,5.60
2023-03-29T08:33:05.580Z,5.51
2023-03-29T08:35:33.698Z,5.59
2023-03-29T08:38:03.790Z,5.77
2023-03-29T08:40:31.910Z,5.67
2023-03-29T08:43:12.286Z,5.69
2023-03-29T08:46:05.600Z,5.75
2023-03-29T08:48:44.523Z,5.67
2023-03-29T08:51:31.765Z,5.69
2023-03-29T08:54:06.441Z,5.93
2023-03-29T08:56:38.593Z,6.07
2023-03-29T08:59:24.986Z,6.07
2023-03-29T09:01:56.197Z,6.09
2023-03-29T09:04:27.833Z,6.72
2023-03-29T09:06:56.723Z,6.78
2023-03-29T09:09:33.630Z,6.52
2023-03-29T09:12:08.375Z,6.70
2023-03-29T09:14:55.201Z,5.82
2023-03-29T09:17:52.289Z,6.41
2023-03-29T09:20:40.819Z,6.58
2023-03-29T09:23:11.974Z,6.68
2023-03-29T09:25:54.303Z,6.65
2023-03-29T09:28:31.459Z,6.96
2023-03-29T09:31:11.457Z,7.32
2023-03-29T09:33:59.307Z,7.69
2023-03-29T09:36:33.214Z,7.53
2023-03-29T09:39:01.554Z,7.67
2023-03-29T09:41:35.269Z,8.23
2023-03-29T09:44:10.869Z,8.10
2023-03-29T09:46:50.151Z,8.08
2023-03-29T09:49:21.385Z,8.54
2023-03-29T09:51:49.775Z,8.22
2023-03-29T09:54:18.774Z,8.00
2023-03-29T09:56:47.767Z,8.06
2023-03-29T09:59:16.531Z,8.64
2023-03-29T10:01:44.393Z,8.64
2023-03-29T10:04:14.989Z,8.75
2023-03-29T10:06:46.062Z,8.88
2023-03-29T10:09:17.291Z,8.98
2023-03-29T10:11:52.239Z,9.10
2023-03-29T10:14:33.706Z,8.89
2023-03-29T10:17:05.666Z,8.57
2023-03-29T10:19:35.396Z,8.86
2023-03-29T10:22:27.457Z,9.08
2023-03-29T10:24:58.685Z,8.86
2023-03-29T10:27:28.458Z,9.40
2023-03-29T10:29:59.652Z,8.89
2023-03-29T10:32:32.097Z,9.01
2023-03-29T10:35:07.911Z,8.96
2023-03-29T10:37:35.492Z,9.10
2023-03-29T10:40:03.958Z,8.85
2023-03-29T10:42:32.031Z,9.07
2023-03-29T10:44:59.870Z,9.01
2023-03-29T10:47:31.870Z,9.66
2023-03-29T10:50:02.266Z,9.82
2023-03-29T10:52:30.495Z,10.35
2023-03-29T10:54:58.176Z,10.74
2023-03-29T10:57:42.824Z,10.96
2023-03-29T11:00:18.235Z,10.95
2023-03-29T11:03:07.766Z,11.09
2023-03-29T11:05:54.293Z,10.34
2023-03-29T11:08:29.740Z,10.55
2023-03-29T11:11:32.023Z,11.32
2023-03-29T11:14:02.357Z,10.81
2023-03-29T11:16:32.178Z,11.37
2023-03-29T11:19:24.146Z,11.19
2023-03-29T11:22:10.137Z,11.14
2023-03-29T11:25:13.843Z,11.46
2023-03-29T11:27:57.889Z,11.36
2023-03-29T11:30:32.922Z,11.30
2023-03-29T11:36:37.483Z,11.73
2023-03-29T11:39:12.093Z,11.09
2023-03-29T11:41:43.110Z,10.98
2023-03-29T11:44:21.132Z,10.77
2023-03-29T11:47:20.282Z,10.89
2023-03-29T11:49:51.979Z,9.99
2023-03-29T11:52:36.135Z,11.49
2023-03-29T11:55:10.255Z,11.66
2023-03-29T11:57:40.480Z,11.94
2023-03-29T12:00:22.961Z,10.51
2023-03-29T12:03:22.141Z,11.80
2023-03-29T12:05:52.736Z,11.75
2023-03-29T12:08:27.027Z,11.66
2023-03-29T12:11:22.984Z,12.58
2023-03-29T12:13:57.741Z,12.20
2023-03-29T12:16:35.767Z,12.14
2023-03-29T12:19:32.883Z,12.31
2023-03-29T12:22:01.237Z,11.54
2023-03-29T12:24:31.520Z,11.57
2023-03-29T12:27:20.936Z,12.11
2023-03-29T12:30:04.619Z,11.76
2023-03-29T12:32:41.819Z,12.60
2023-03-29T12:35:22.764Z,12.54
2023-03-29T12:38:10.588Z,11.12
2023-03-29T12:40:44.590Z,10.95
2023-03-29T12:43:33.307Z,11.73
2023-03-29T12:46:07.619Z,12.23
2023-03-29T12:48:38.593Z,11.59
2023-03-29T12:51:18.740Z,11.28
2023-03-29T12:53:48.903Z,10.76
2023-03-29T12:56:20.206Z,11.65
2023-03-29T12:58:55.455Z,11.11
2023-03-29T13:01:30.534Z,11.03
2023-03-29T13:04:01.381Z,10.88
2023-03-29T13:06:34.913Z,11.64
2023-03-29T13:09:19.869Z,11.33
2023-03-29T13:11:55.011Z,11.03
2023-03-29T13:14:26.462Z,12.00
2023-03-29T13:17:17.711Z,11.81
2023-03-29T13:19:47.787Z,12.44
2023-03-29T13:22:49.981Z,12.79
2023-03-29T13:25:25.971Z,12.23
2023-03-29T13:27:53.991Z,11.35
2023-03-29T13:30:31.814Z,11.76
2023-03-29T13:33:18.876Z,11.38
2023-03-29T13:36:34.754Z,11.64
2023-03-29T13:39:04.513Z,11.20
2023-03-29T13:41:39.078Z,10.87
2023-03-29T13:44:41.188Z,11.28
2023-03-29T13:47:36.723Z,11.11
2023-03-29T13:50:35.251Z,11.50
2023-03-29T13:53:22.252Z,12.04
2023-03-29T13:55:52.492Z,12.14
2023-03-29T13:58:38.534Z,11.66
2023-03-29T14:01:23.690Z,12.16
2023-03-29T14:03:53.299Z,11.02
2023-03-29T14:06:32.364Z,11.68
2023-03-29T14:09:06.061Z,12.11
2023-03-29T14:11:33.926Z,11.12
2023-03-29T14:14:04.166Z,11.81
2023-03-29T14:16:35.914Z,11.25
2023-03-29T14:19:06.481Z,11.33
2023-03-29T14:21:34.268Z,11.38
2023-03-29T14:24:02.294Z,11.13
2023-03-29T14:26:37.519Z,10.26
2023-03-29T14:29:06.897Z,9.78
2023-03-29T14:31:36.763Z,10.04
2023-03-29T14:34:06.706Z,10.66
2023-03-29T14:36:34.378Z,11.49
2023-03-29T14:39:11.624Z,11.31
2023-03-29T14:41:39.654Z,11.51
2023-03-29T14:44:08.051Z,10.52
2023-03-29T14:46:36.099Z,10.51
2023-03-29T14:49:04.100Z,11.08
2023-03-29T14:51:32.566Z,10.75
2023-03-29T14:54:00.900Z,11.17
2023-03-29T14:56:29.166Z,11.04
2023-03-29T14:58:57.591Z,10.78
2023-03-29T15:01:26.369Z,9.75
2023-03-29T15:03:56.595Z,10.20
2023-03-29T15:06:26.303Z,9.70
2023-03-29T15:09:05.092Z,10.26
2023-03-29T15:11:34.660Z,9.96
2023-03-29T15:14:04.662Z,9.66
2023-03-29T15:16:33.302Z,9.91
2023-03-29T15:19:04.850Z,9.49
2023-03-29T15:21:35.587Z,9.68
2023-03-29T15:24:05.059Z,9.47
2023-03-29T15:26:35.000Z,9.47
2023-03-29T15:29:12.655Z,9.70
2023-03-29T15:31:54.350Z,9.58
2023-03-29T15:34:27.938Z,9.66
2023-03-29T15:36:55.965Z,9.93
2023-03-29T15:39:25.444Z,9.97
2023-03-29T15:41:53.852Z,9.66
2023-03-29T15:44:27.030Z,9.23
2023-03-29T15:46:56.005Z,9.64
2023-03-29T15:49:23.843Z,9.74
2023-03-29T15:51:52.488Z,9.33
2023-03-29T15:54:23.729Z,9.83
2023-03-29T15:56:54.312Z,9.54
2023-03-29T15:59:22.969Z,9.33
2023-03-29T16:01:50.984Z,9.13
2023-03-29T16:04:20.501Z,9.52
2023-03-29T16:06:50.204Z,9.73
2023-03-29T16:09:17.850Z,9.61
2023-03-29T16:11:46.384Z,9.59
2023-03-29T16:14:24.032Z,9.67
2023-03-29T16:16:52.971Z,9.54
2023-03-29T16:19:20.871Z,9.28
2023-03-29T16:21:48.608Z,9.39
2023-03-29T16:24:25.028Z,9.41
2023-03-29T16:26:55.332Z,9.35
2023-03-29T16:29:24.710Z,9.32
2023-03-29T16:31:53.416Z,9.14
2023-03-29T16:34:21.805Z,8.94
2023-03-29T16:36:49.945Z,9.00
2023-03-29T16:39:17.639Z,9.03
2023-03-29T16:41:45.594Z,9.12
2023-03-29T16:44:16.945Z,9.16
2023-03-29T16:46:44.933Z,9.02
2023-03-29T16:49:14.452Z,8.89
2023-03-29T16:51:42.530Z,8.89
2023-03-29T16:54:10.350Z,8.82
2023-03-29T16:56:38.460Z,8.87
2023-03-29T16:59:06.278Z,9.02
2023-03-29T17:01:34.439Z,8.99
2023-03-29T17:04:02.471Z,8.92
2023-03-29T17:06:30.370Z,8.88
2023-03-29T17:08:58.944Z,8.76
2023-03-29T17:11:27.485Z,8.59
2023-03-29T17:13:55.239Z,8.86
2023-03-29T17:16:23.007Z,8.86
2023-03-29T17:18:51.098Z,8.80
2023-03-29T17:21:23.112Z,8.75
2023-03-29T17:23:56.350Z,8.78
2023-03-29T17:26:24.168Z,8.67
2023-03-29T17:28:56.675Z,8.67
2023-03-29T17:31:24.907Z,8.68
2023-03-29T17:33:52.759Z,8.78
2023-03-29T17:36:20.683Z,8.90
2023-03-29T17:38:49.737Z,8.83
2023-03-29T17:41:18.097Z,8.74
2023-03-29T17:43:49.274Z,8.73
2023-03-29T17:46:18.991Z,8.71
2023-03-29T17:48:47.101Z,8.70
2023-03-29T17:51:15.511Z,8.73
2023-03-29T17:53:44.013Z,8.66
2023-03-29T17:56:14.716Z,8.69
2023-03-29T17:58:43.097Z,8.66
2023-03-29T18:01:12.157Z,8.58
2023-03-29T18:03:42.049Z,8.56
2023-03-29T18:06:10.266Z,8.57
2023-03-29T18:08:38.832Z,8.51
2023-03-29T18:11:18.465Z,8.51
2023-03-29T18:13:46.387Z,8.37
2023-03-29T18:16:14.888Z,8.30
2023-03-29T18:18:43.042Z,8.31
2023-03-29T18:21:11.448Z,8.22
2023-03-29T18:23:44.413Z,7.90
2023-03-29T18:26:12.539Z,8.25
2023-03-29T18:28:41.581Z,8.23
2023-03-29T18:31:10.805Z,8.07
2023-03-29T18:33:42.307Z,8.11
2023-03-29T18:36:12.970Z,8.08
2023-03-29T18:38:45.709Z,8.09
2023-03-29T18:41:14.135Z,8.11
2023-03-29T18:43:44.555Z,8.19
2023-03-29T18:46:13.075Z,8.15
2023-03-29T18:48:41.563Z,8.20
2023-03-29T18:51:12.021Z,8.29
2023-03-29T18:53:40.503Z,8.27
2023-03-29T18:56:08.269Z,8.18
2023-03-29T18:58:36.348Z,8.18
2023-03-29T19:01:05.869Z,8.17
2023-03-29T19:03:34.733Z,8.09
2023-03-29T19:06:04.042Z,8.07
2023-03-29T19:08:33.062Z,8.00
2023-03-29T19:11:02.531Z,8.09
2023-03-29T19:13:30.630Z,8.01
2023-03-29T19:15:58.803Z,7.99
2023-03-29T19:18:27.138Z,7.88
2023-03-29T19:20:55.294Z,7.82
2023-03-29T19:23:24.453Z,7.87
2023-03-29T19:25:57.372Z,7.77
2023-03-29T19:28:26.131Z,7.74
2023-03-29T19:30:54.714Z,7.82
2023-03-29T19:33:22.701Z,7.76
2023-03-29T19:35:51.584Z,7.74
2023-03-29T19:38:20.484Z,7.75
2023-03-29T19:40:50.149Z,7.80
2023-03-29T19:43:19.072Z,7.77
2023-03-29T19:45:48.358Z,7.65
2023-03-29T19:48:22.532Z,7.72
2023-03-29T19:50:52.345Z,7.78
2023-03-29T19:53:20.281Z,7.73
2023-03-29T19:55:48.012Z,7.68
2023-03-29T19:58:16.157Z,7.70
2023-03-29T20:00:43.901Z,7.68
2023-03-29T20:03:12.619Z,7.68
2023-03-29T20:05:40.685Z,7.75
2023-03-29T20:08:09.067Z,7.84
2023-03-29T20:10:37.118Z,7.79
2023-03-29T20:13:04.950Z,7.80
2023-03-29T20:15:33.162Z,7.75
2023-03-29T20:18:01.522Z,7.78
2023-03-29T20:20:29.382Z,7.75
2023-03-29T20:22:57.352Z,7.75
2023-03-29T20:25:25.384Z,7.77
2023-03-29T20:27:53.333Z,7.78
2023-03-29T20:30:21.116Z,7.75
2023-03-29T20:32:49.643Z,7.70
2023-03-29T20:35:17.442Z,7.67
2023-03-29T20:37:45.093Z,7.72
2023-03-29T20:40:13.312Z,7.69
2023-03-29T20:42:41.434Z,7.75
2023-03-29T20:45:09.590Z,7.68
2023-03-29T20:47:37.473Z,7.64
2023-03-29T20:50:05.696Z,7.62
2023-03-29T20:52:33.518Z,7.56
2023-03-29T20:55:01.507Z,7.46
2023-03-29T20:57:30.574Z,7.48
2023-03-29T20:59:58.434Z,7.44
2023-03-29T21:02:26.543Z,7.43
2023-03-29T21:04:54.339Z,7.46
2023-03-29T21:07:21.956Z,7.55
2023-03-29T21:09:50.173Z,7.55
2023-03-29T21:12:17.785Z,7.51
2023-03-29T21:14:45.438Z,7.48
2023-03-29T21:17:13.394Z,7.52
2023-03-29T21:19:41.182Z,7.57
2023-03-29T21:22:09.228Z,7.54
2023-03-29T21:24:37.180Z,7.47
2023-03-29T21:27:05.527Z,7.49
2023-03-29T21:29:33.417Z,7.58
2023-03-29T21:32:01.512Z,7.51
2023-03-29T21:34:29.119Z,7.44
2023-03-29T21:36:56.753Z,7.52
2023-03-29T21:39:26.331Z,7.50
2023-03-29T21:41:54.395Z,7.45
2023-03-29T21:44:22.116Z,7.49
2023-03-29T21:46:50.054Z,7.56
2023-03-29T21:49:18.016Z,7.47
2023-03-29T21:51:46.391Z,7.53
2023-03-29T21:54:14.280Z,7.43
2023-03-29T21:56:42.055Z,7.36
2023-03-29T21:59:09.959Z,7.43
2023-03-29T22:01:37.878Z,7.54
2023-03-29T22:04:05.823Z,7.48
2023-03-29T22:06:33.600Z,7.45
2023-03-29T22:09:01.644Z,7.48
2023-03-29T22:11:30.566Z,7.51
2023-03-29T22:13:58.441Z,7.56
2023-03-29T22:16:26.160Z,7.58
2023-03-29T22:18:54.306Z,7.55
2023-03-29T22:21:24.057Z,7.51
2023-03-29T22:23:54.744Z,7.56
2023-03-29T22:26:25.060Z,7.52
2023-03-29T22:28:53.207Z,7.44
2023-03-29T22:31:22.260Z,7.47
2023-03-29T22:33:50.390Z,7.52
2023-03-29T22:36:23.684Z,7.37
2023-03-29T22:38:52.307Z,7.37
2023-03-29T22:41:21.360Z,7.35
2023-03-29T22:43:51.344Z,7.40
2023-03-29T22:46:19.744Z,7.43
2023-03-29T22:48:47.870Z,7.48
2023-03-29T22:51:15.725Z,7.39
2023-03-29T22:53:44.058Z,7.32
2023-03-29T22:56:11.716Z,7.27
2023-03-29T22:58:39.483Z,7.36
2023-03-29T23:01:07.614Z,7.28
2023-03-29T23:03:35.760Z,7.30
2023-03-29T23:06:03.697Z,7.26
2023-03-29T23:08:33.026Z,7.36
2023-03-29T23:11:01.911Z,7.33
2023-03-29T23:13:30.102Z,7.25
2023-03-29T23:15:59.328Z,7.18
2023-03-29T23:18:28.860Z,7.11
2023-03-29T23:20:57.674Z,7.07
2023-03-29T23:23:27.095Z,6.91
2023-03-29T23:25:55.252Z,6.75
2023-03-29T23:28:25.498Z,6.79
2023-03-29T23:30:58.782Z,6.80
2023-03-29T23:33:27.048Z,6.64
2023-03-29T23:35:55.151Z,6.56
2023-03-29T23:38:23.066Z,6.47
2023-03-29T23:40:59.176Z,6.41
2023-03-29T23:43:31.489Z,6.39
2023-03-29T23:46:00.689Z,6.24
2023-03-29T23:48:29.215Z,6.21
2023-03-29T23:50:57.195Z,6.15
2023-03-29T23:53:25.955Z,6.06
2023-03-29T23:56:01.262Z,6.04
2023-03-29T23:58:33.442Z,5.94
